sensor_id;sensor_type;location;lat;lon;timestamp;temperature;humidity
17859;DHT22;35426;30.698;104.050;2023-06-26T00:02:15;32.60;99.90
17859;DHT22;35426;30.698;104.050;2023-06-26T00:04:49;33.60;99.90
17859;DHT22;35426;30.698;104.050;2023-06-26T00:07:27;33.10;99.90
17859;DHT22;35426;30.698;104.050;2023-06-26T00:10:01;32.80;99.90
17859;DHT22;35426;30.698;104.050;2023-06-26T00:12:35;32.50;99.90
17859;DHT22;35426;30.698;104.050;2023-06-26T00:15:09;32.20;99.90
17859;DHT22;35426;30.698;104.050;2023-06-26T00:17:43;32.10;99.90
17859;DHT22;35426;30.698;104.050;2023-06-26T00:20:17;32.00;99.90
17859;DHT22;35426;30.698;104.050;2023-06-26T00:22:53;31.90;99.90
17859;DHT22;35426;30.698;104.050;2023-06-26T00:25:29;31.90;99.90
17859;DHT22;35426;30.698;104.050;2023-06-26T00:28:03;32.10;99.90
17859;DHT22;35426;30.698;104.050;2023-06-26T00:30:39;32.20;99.90
17859;DHT22;35426;30.698;104.050;2023-06-26T00:33:13;32.30;99.90
17859;DHT22;35426;30.698;104.050;2023-06-26T00:35:46;32.30;99.90
17859;DHT22;35426;30.698;104.050;2023-06-26T00:38:22;32.30;99.90
17859;DHT22;35426;30.698;104.050;2023-06-26T00:40:56;32.30;99.90
17859;DHT22;35426;30.698;104.050;2023-06-26T00:43:31;32.50;99.90
17859;DHT22;35426;30.698;104.050;2023-06-26T00:46:05;32.60;99.90
17859;DHT22;35426;30.698;104.050;2023-06-26T00:48:44;32.90;99.90
17859;DHT22;35426;30.698;104.050;2023-06-26T00:51:21;33.40;99.90
17859;DHT22;35426;30.698;104.050;2023-06-26T00:53:56;33.70;99.90
17859;DHT22;35426;30.698;104.050;2023-06-26T00:56:31;33.10;99.90
17859;DHT22;35426;30.698;104.050;2023-06-26T00:59:07;33.30;99.90
17859;DHT22;35426;30.698;104.050;2023-06-26T01:01:40;33.70;99.90
17859;DHT22;35426;30.698;104.050;2023-06-26T01:04:14;34.40;99.90
17859;DHT22;35426;30.698;104.050;2023-06-26T01:06:50;35.10;99.90
17859;DHT22;35426;30.698;104.050;2023-06-26T01:09:28;35.60;99.90
17859;DHT22;35426;30.698;104.050;2023-06-26T01:12:03;35.60;99.90
17859;DHT22;35426;30.698;104.050;2023-06-26T01:14:37;35.60;99.90
17859;DHT22;35426;30.698;104.050;2023-06-26T01:17:12;35.90;99.90
17859;DHT22;35426;30.698;104.050;2023-06-26T01:19:47;36.20;99.90
17859;DHT22;35426;30.698;104.050;2023-06-26T01:22:27;36.00;99.90
17859;DHT22;35426;30.698;104.050;2023-06-26T01:25:13;36.30;99.90
17859;DHT22;35426;30.698;104.050;2023-06-26T01:27:53;36.20;99.90
17859;DHT22;35426;30.698;104.050;2023-06-26T01:30:29;36.00;99.90
17859;DHT22;35426;30.698;104.050;2023-06-26T01:33:05;36.20;99.90
17859;DHT22;35426;30.698;104.050;2023-06-26T01:35:38;36.10;99.90
17859;DHT22;35426;30.698;104.050;2023-06-26T01:38:16;35.70;99.90
17859;DHT22;35426;30.698;104.050;2023-06-26T01:40:49;35.40;99.90
17859;DHT22;35426;30.698;104.050;2023-06-26T01:43:27;35.40;99.90
17859;DHT22;35426;30.698;104.050;2023-06-26T01:46:06;35.30;99.90
17859;DHT22;35426;30.698;104.050;2023-06-26T01:48:45;35.70;99.90
17859;DHT22;35426;30.698;104.050;2023-06-26T01:51:22;35.70;99.90
17859;DHT22;35426;30.698;104.050;2023-06-26T01:53:59;35.50;99.90
17859;DHT22;35426;30.698;104.050;2023-06-26T01:56:33;35.60;99.90
17859;DHT22;35426;30.698;104.050;2023-06-26T01:59:12;35.80;99.90
17859;DHT22;35426;30.698;104.050;2023-06-26T02:01:46;35.90;99.90
17859;DHT22;35426;30.698;104.050;2023-06-26T02:04:19;36.00;99.90
17859;DHT22;35426;30.698;104.050;2023-06-26T02:06:52;35.90;99.90
17859;DHT22;35426;30.698;104.050;2023-06-26T02:09:26;35.90;99.90
17859;DHT22;35426;30.698;104.050;2023-06-26T02:11:59;35.80;99.90
17859;DHT22;35426;30.698;104.050;2023-06-26T02:14:35;36.00;99.90
17859;DHT22;35426;30.698;104.050;2023-06-26T02:17:08;36.10;99.90
17859;DHT22;35426;30.698;104.050;2023-06-26T02:19:42;36.40;99.90
17859;DHT22;35426;30.698;104.050;2023-06-26T02:22:18;36.40;99.90
17859;DHT22;35426;30.698;104.050;2023-06-26T02:24:51;36.80;99.90
17859;DHT22;35426;30.698;104.050;2023-06-26T02:27:24;36.60;99.90
17859;DHT22;35426;30.698;104.050;2023-06-26T02:30:00;36.40;99.90
17859;DHT22;35426;30.698;104.050;2023-06-26T02:32:34;36.50;99.90
17859;DHT22;35426;30.698;104.050;2023-06-26T02:35:09;36.30;99.90
17859;DHT22;35426;30.698;104.050;2023-06-26T02:37:48;35.80;99.90
17859;DHT22;35426;30.698;104.050;2023-06-26T02:40:21;35.90;99.90
17859;DHT22;35426;30.698;104.050;2023-06-26T02:42:56;35.90;99.90
17859;DHT22;35426;30.698;104.050;2023-06-26T02:45:31;36.00;99.90
17859;DHT22;35426;30.698;104.050;2023-06-26T02:48:05;35.70;99.90
17859;DHT22;35426;30.698;104.050;2023-06-26T02:50:39;35.40;99.90
17859;DHT22;35426;30.698;104.050;2023-06-26T02:53:15;35.30;99.90
17859;DHT22;35426;30.698;104.050;2023-06-26T02:55:49;35.60;99.90
17859;DHT22;35426;30.698;104.050;2023-06-26T02:58:22;36.00;99.90
17859;DHT22;35426;30.698;104.050;2023-06-26T03:00:58;36.30;99.90
17859;DHT22;35426;30.698;104.050;2023-06-26T03:03:32;36.40;99.90
17859;DHT22;35426;30.698;104.050;2023-06-26T03:06:18;36.20;99.90
17859;DHT22;35426;30.698;104.050;2023-06-26T03:08:52;36.20;99.90
17859;DHT22;35426;30.698;104.050;2023-06-26T03:11:26;36.30;99.90
17859;DHT22;35426;30.698;104.050;2023-06-26T03:14:00;36.30;99.90
17859;DHT22;35426;30.698;104.050;2023-06-26T03:16:36;36.40;99.90
17859;DHT22;35426;30.698;104.050;2023-06-26T03:19:10;36.40;99.90
17859;DHT22;35426;30.698;104.050;2023-06-26T03:22:13;36.50;99.90
17859;DHT22;35426;30.698;104.050;2023-06-26T03:24:47;36.70;99.90
17859;DHT22;35426;30.698;104.050;2023-06-26T03:27:21;36.80;99.90
17859;DHT22;35426;30.698;104.050;2023-06-26T03:29:54;36.70;99.90
17859;DHT22;35426;30.698;104.050;2023-06-26T03:32:29;36.70;99.90
17859;DHT22;35426;30.698;104.050;2023-06-26T03:35:03;36.80;99.90
17859;DHT22;35426;30.698;104.050;2023-06-26T03:37:38;36.70;99.90
17859;DHT22;35426;30.698;104.050;2023-06-26T03:40:12;36.50;99.90
17859;DHT22;35426;30.698;104.050;2023-06-26T03:42:47;36.40;99.90
17859;DHT22;35426;30.698;104.050;2023-06-26T03:45:21;36.90;99.90
17859;DHT22;35426;30.698;104.050;2023-06-26T03:47:58;37.00;99.90
17859;DHT22;35426;30.698;104.050;2023-06-26T03:50:33;37.20;99.90
17859;DHT22;35426;30.698;104.050;2023-06-26T03:53:08;37.60;99.90
17859;DHT22;35426;30.698;104.050;2023-06-26T03:55:42;37.70;99.90
17859;DHT22;35426;30.698;104.050;2023-06-26T03:58:16;37.60;99.90
17859;DHT22;35426;30.698;104.050;2023-06-26T04:00:50;37.60;99.90
17859;DHT22;35426;30.698;104.050;2023-06-26T04:03:26;37.70;99.90
17859;DHT22;35426;30.698;104.050;2023-06-26T04:05:59;38.00;99.90
17859;DHT22;35426;30.698;104.050;2023-06-26T04:08:34;37.90;99.90
17859;DHT22;35426;30.698;104.050;2023-06-26T04:11:08;38.30;99.90
17859;DHT22;35426;30.698;104.050;2023-06-26T04:13:43;38.60;99.90
17859;DHT22;35426;30.698;104.050;2023-06-26T04:16:16;38.50;99.90
17859;DHT22;35426;30.698;104.050;2023-06-26T04:18:52;38.60;99.90
17859;DHT22;35426;30.698;104.050;2023-06-26T04:21:26;38.70;99.90
17859;DHT22;35426;30.698;104.050;2023-06-26T04:24:01;38.50;99.90
17859;DHT22;35426;30.698;104.050;2023-06-26T04:26:34;37.50;99.90
17859;DHT22;35426;30.698;104.050;2023-06-26T04:29:09;37.10;99.90
17859;DHT22;35426;30.698;104.050;2023-06-26T04:31:42;37.50;99.90
17859;DHT22;35426;30.698;104.050;2023-06-26T04:34:19;37.60;99.90
17859;DHT22;35426;30.698;104.050;2023-06-26T04:36:54;37.60;99.90
17859;DHT22;35426;30.698;104.050;2023-06-26T04:39:28;37.70;99.90
17859;DHT22;35426;30.698;104.050;2023-06-26T04:42:02;37.70;99.90
17859;DHT22;35426;30.698;104.050;2023-06-26T04:44:35;37.70;99.90
17859;DHT22;35426;30.698;104.050;2023-06-26T04:47:09;37.60;99.90
17859;DHT22;35426;30.698;104.050;2023-06-26T04:49:51;37.10;99.90
17859;DHT22;35426;30.698;104.050;2023-06-26T04:52:25;37.40;99.90
17859;DHT22;35426;30.698;104.050;2023-06-26T04:54:59;37.60;99.90
17859;DHT22;35426;30.698;104.050;2023-06-26T04:57:32;37.50;99.90
17859;DHT22;35426;30.698;104.050;2023-06-26T05:00:07;37.50;99.90
17859;DHT22;35426;30.698;104.050;2023-06-26T05:02:43;37.60;99.90
17859;DHT22;35426;30.698;104.050;2023-06-26T05:05:20;37.90;99.90
17859;DHT22;35426;30.698;104.050;2023-06-26T05:07:54;37.90;99.90
17859;DHT22;35426;30.698;104.050;2023-06-26T05:10:28;37.90;99.90
17859;DHT22;35426;30.698;104.050;2023-06-26T05:13:02;38.00;99.90
17859;DHT22;35426;30.698;104.050;2023-06-26T05:15:37;37.60;99.90
17859;DHT22;35426;30.698;104.050;2023-06-26T05:18:10;37.70;99.90
17859;DHT22;35426;30.698;104.050;2023-06-26T05:20:46;37.70;99.90
17859;DHT22;35426;30.698;104.050;2023-06-26T05:23:23;37.80;99.90
17859;DHT22;35426;30.698;104.050;2023-06-26T05:25:58;37.90;99.90
17859;DHT22;35426;30.698;104.050;2023-06-26T05:28:32;37.60;99.90
17859;DHT22;35426;30.698;104.050;2023-06-26T05:31:08;37.90;99.90
17859;DHT22;35426;30.698;104.050;2023-06-26T05:33:44;37.80;99.90
17859;DHT22;35426;30.698;104.050;2023-06-26T05:36:21;37.80;99.90
17859;DHT22;35426;30.698;104.050;2023-06-26T05:38:55;36.80;99.90
17859;DHT22;35426;30.698;104.050;2023-06-26T05:41:29;36.80;99.90
17859;DHT22;35426;30.698;104.050;2023-06-26T05:44:04;36.70;99.90
17859;DHT22;35426;30.698;104.050;2023-06-26T05:46:39;35.80;99.90
17859;DHT22;35426;30.698;104.050;2023-06-26T05:49:14;35.30;99.90
17859;DHT22;35426;30.698;104.050;2023-06-26T05:51:51;35.70;99.90
17859;DHT22;35426;30.698;104.050;2023-06-26T05:54:26;36.50;99.90
17859;DHT22;35426;30.698;104.050;2023-06-26T05:57:01;36.80;99.90
17859;DHT22;35426;30.698;104.050;2023-06-26T05:59:38;37.00;99.90
17859;DHT22;35426;30.698;104.050;2023-06-26T06:02:17;36.60;99.90
17859;DHT22;35426;30.698;104.050;2023-06-26T06:04:50;36.20;99.90
17859;DHT22;35426;30.698;104.050;2023-06-26T06:07:26;36.10;99.90
17859;DHT22;35426;30.698;104.050;2023-06-26T06:10:00;35.80;99.90
17859;DHT22;35426;30.698;104.050;2023-06-26T06:12:34;36.00;99.90
17859;DHT22;35426;30.698;104.050;2023-06-26T06:15:08;36.20;99.90
17859;DHT22;35426;30.698;104.050;2023-06-26T06:17:43;36.40;99.90
17859;DHT22;35426;30.698;104.050;2023-06-26T06:20:19;36.50;99.90
17859;DHT22;35426;30.698;104.050;2023-06-26T06:22:59;36.40;99.90
17859;DHT22;35426;30.698;104.050;2023-06-26T06:25:32;36.20;99.90
17859;DHT22;35426;30.698;104.050;2023-06-26T06:28:06;35.60;99.90
17859;DHT22;35426;30.698;104.050;2023-06-26T06:30:40;35.70;99.90
17859;DHT22;35426;30.698;104.050;2023-06-26T06:33:15;35.90;99.90
17859;DHT22;35426;30.698;104.050;2023-06-26T06:35:49;35.90;99.90
17859;DHT22;35426;30.698;104.050;2023-06-26T06:38:24;36.10;99.90
17859;DHT22;35426;30.698;104.050;2023-06-26T06:40:58;36.20;99.90
17859;DHT22;35426;30.698;104.050;2023-06-26T06:43:30;36.20;99.90
17859;DHT22;35426;30.698;104.050;2023-06-26T06:46:04;36.40;99.90
17859;DHT22;35426;30.698;104.050;2023-06-26T06:48:37;36.40;99.90
17859;DHT22;35426;30.698;104.050;2023-06-26T06:51:11;36.30;99.90
17859;DHT22;35426;30.698;104.050;2023-06-26T06:53:46;36.30;99.90
17859;DHT22;35426;30.698;104.050;2023-06-26T06:56:22;36.40;99.90
17859;DHT22;35426;30.698;104.050;2023-06-26T06:58:55;36.20;99.90
17859;DHT22;35426;30.698;104.050;2023-06-26T07:01:28;35.70;99.90
17859;DHT22;35426;30.698;104.050;2023-06-26T07:04:05;35.60;99.90
17859;DHT22;35426;30.698;104.050;2023-06-26T07:06:39;35.40;99.90
17859;DHT22;35426;30.698;104.050;2023-06-26T07:09:16;35.10;99.90
17859;DHT22;35426;30.698;104.050;2023-06-26T07:11:50;34.90;99.90
17859;DHT22;35426;30.698;104.050;2023-06-26T07:14:23;35.00;99.90
17859;DHT22;35426;30.698;104.050;2023-06-26T07:16:56;34.90;99.90
17859;DHT22;35426;30.698;104.050;2023-06-26T07:19:30;34.90;99.90
17859;DHT22;35426;30.698;104.050;2023-06-26T07:22:04;35.00;99.90
17859;DHT22;35426;30.698;104.050;2023-06-26T07:24:39;34.90;99.90
17859;DHT22;35426;30.698;104.050;2023-06-26T07:27:14;35.00;99.90
17859;DHT22;35426;30.698;104.050;2023-06-26T07:29:48;34.90;99.90
17859;DHT22;35426;30.698;104.050;2023-06-26T07:32:22;35.10;99.90
17859;DHT22;35426;30.698;104.050;2023-06-26T07:34:55;35.20;99.90
17859;DHT22;35426;30.698;104.050;2023-06-26T07:37:29;35.20;99.90
17859;DHT22;35426;30.698;104.050;2023-06-26T07:40:04;34.80;99.90
17859;DHT22;35426;30.698;104.050;2023-06-26T07:42:37;34.80;99.90
17859;DHT22;35426;30.698;104.050;2023-06-26T07:45:11;34.60;99.90
17859;DHT22;35426;30.698;104.050;2023-06-26T07:47:45;34.30;99.90
17859;DHT22;35426;30.698;104.050;2023-06-26T07:50:20;34.40;99.90
17859;DHT22;35426;30.698;104.050;2023-06-26T07:52:54;34.30;99.90
17859;DHT22;35426;30.698;104.050;2023-06-26T07:55:30;34.30;99.90
17859;DHT22;35426;30.698;104.050;2023-06-26T07:58:03;34.00;99.90
17859;DHT22;35426;30.698;104.050;2023-06-26T08:00:37;33.70;99.90
17859;DHT22;35426;30.698;104.050;2023-06-26T08:03:11;33.70;99.90
17859;DHT22;35426;30.698;104.050;2023-06-26T08:06:03;33.60;99.90
17859;DHT22;35426;30.698;104.050;2023-06-26T08:08:41;33.60;99.90
17859;DHT22;35426;30.698;104.050;2023-06-26T08:11:16;33.70;99.90
17859;DHT22;35426;30.698;104.050;2023-06-26T08:13:50;33.70;99.90
17859;DHT22;35426;30.698;104.050;2023-06-26T08:16:23;33.70;99.90
17859;DHT22;35426;30.698;104.050;2023-06-26T08:18:59;33.80;99.90
17859;DHT22;35426;30.698;104.050;2023-06-26T08:21:32;33.80;99.90
17859;DHT22;35426;30.698;104.050;2023-06-26T08:24:08;33.90;99.90
17859;DHT22;35426;30.698;104.050;2023-06-26T08:26:47;33.90;99.90
17859;DHT22;35426;30.698;104.050;2023-06-26T08:29:21;33.50;99.90
17859;DHT22;35426;30.698;104.050;2023-06-26T08:31:55;33.30;99.90
17859;DHT22;35426;30.698;104.050;2023-06-26T08:34:28;33.50;99.90
17859;DHT22;35426;30.698;104.050;2023-06-26T08:37:04;33.70;99.90
17859;DHT22;35426;30.698;104.050;2023-06-26T08:39:39;33.90;99.90
17859;DHT22;35426;30.698;104.050;2023-06-26T08:42:15;34.10;99.90
17859;DHT22;35426;30.698;104.050;2023-06-26T08:44:48;34.20;99.90
17859;DHT22;35426;30.698;104.050;2023-06-26T08:47:31;34.20;99.90
17859;DHT22;35426;30.698;104.050;2023-06-26T08:50:08;34.30;99.90
17859;DHT22;35426;30.698;104.050;2023-06-26T08:52:46;34.00;99.90
17859;DHT22;35426;30.698;104.050;2023-06-26T08:55:28;34.00;99.90
17859;DHT22;35426;30.698;104.050;2023-06-26T08:58:03;33.80;99.90
17859;DHT22;35426;30.698;104.050;2023-06-26T09:00:37;34.00;99.90
17859;DHT22;35426;30.698;104.050;2023-06-26T09:03:13;34.10;99.90
17859;DHT22;35426;30.698;104.050;2023-06-26T09:05:46;34.20;99.90
17859;DHT22;35426;30.698;104.050;2023-06-26T09:08:21;34.30;99.90
17859;DHT22;35426;30.698;104.050;2023-06-26T09:10:56;34.30;99.90
17859;DHT22;35426;30.698;104.050;2023-06-26T09:13:32;34.10;99.90
17859;DHT22;35426;30.698;104.050;2023-06-26T09:16:07;34.30;99.90
17859;DHT22;35426;30.698;104.050;2023-06-26T09:18:42;34.30;99.90
17859;DHT22;35426;30.698;104.050;2023-06-26T09:21:15;34.40;99.90
17859;DHT22;35426;30.698;104.050;2023-06-26T09:23:48;34.30;99.90
17859;DHT22;35426;30.698;104.050;2023-06-26T09:26:23;34.10;99.90
17859;DHT22;35426;30.698;104.050;2023-06-26T09:28:58;34.10;99.90
17859;DHT22;35426;30.698;104.050;2023-06-26T09:31:35;34.00;99.90
17859;DHT22;35426;30.698;104.050;2023-06-26T09:34:11;34.00;99.90
17859;DHT22;35426;30.698;104.050;2023-06-26T09:36:46;33.90;99.90
17859;DHT22;35426;30.698;104.050;2023-06-26T09:39:21;33.90;99.90
17859;DHT22;35426;30.698;104.050;2023-06-26T09:41:55;33.80;99.90
17859;DHT22;35426;30.698;104.050;2023-06-26T09:44:34;33.60;99.90
17859;DHT22;35426;30.698;104.050;2023-06-26T09:47:08;33.50;99.90
17859;DHT22;35426;30.698;104.050;2023-06-26T09:49:44;33.50;99.90
17859;DHT22;35426;30.698;104.050;2023-06-26T09:52:19;33.30;99.90
17859;DHT22;35426;30.698;104.050;2023-06-26T09:55:08;33.40;99.90
17859;DHT22;35426;30.698;104.050;2023-06-26T09:57:41;33.40;99.90
17859;DHT22;35426;30.698;104.050;2023-06-26T10:00:19;33.30;99.90
17859;DHT22;35426;30.698;104.050;2023-06-26T10:02:52;33.20;99.90
17859;DHT22;35426;30.698;104.050;2023-06-26T10:05:26;33.10;99.90
17859;DHT22;35426;30.698;104.050;2023-06-26T10:08:00;33.10;99.90
17859;DHT22;35426;30.698;104.050;2023-06-26T10:10:37;33.00;99.90
17859;DHT22;35426;30.698;104.050;2023-06-26T10:13:18;33.00;99.90
17859;DHT22;35426;30.698;104.050;2023-06-26T10:15:56;32.90;99.90
17859;DHT22;35426;30.698;104.050;2023-06-26T10:18:33;32.90;99.90
17859;DHT22;35426;30.698;104.050;2023-06-26T10:21:07;32.70;99.90
17859;DHT22;35426;30.698;104.050;2023-06-26T10:23:43;32.70;99.90
17859;DHT22;35426;30.698;104.050;2023-06-26T10:26:20;32.80;99.90
17859;DHT22;35426;30.698;104.050;2023-06-26T10:28:55;32.90;99.90
17859;DHT22;35426;30.698;104.050;2023-06-26T10:31:32;32.80;99.90
17859;DHT22;35426;30.698;104.050;2023-06-26T10:34:06;32.70;99.90
17859;DHT22;35426;30.698;104.050;2023-06-26T10:36:39;32.80;99.90
17859;DHT22;35426;30.698;104.050;2023-06-26T10:39:13;32.70;99.90
17859;DHT22;35426;30.698;104.050;2023-06-26T10:41:48;32.80;99.90
17859;DHT22;35426;30.698;104.050;2023-06-26T10:44:25;32.80;99.90
17859;DHT22;35426;30.698;104.050;2023-06-26T10:47:02;32.70;99.90
17859;DHT22;35426;30.698;104.050;2023-06-26T10:49:38;32.60;99.90
17859;DHT22;35426;30.698;104.050;2023-06-26T10:52:38;32.60;99.90
17859;DHT22;35426;30.698;104.050;2023-06-26T10:55:15;32.60;99.90
17859;DHT22;35426;30.698;104.050;2023-06-26T10:57:48;32.70;99.90
17859;DHT22;35426;30.698;104.050;2023-06-26T11:00:25;32.70;99.90
17859;DHT22;35426;30.698;104.050;2023-06-26T11:03:00;32.60;99.90
17859;DHT22;35426;30.698;104.050;2023-06-26T11:05:34;32.50;99.90
17859;DHT22;35426;30.698;104.050;2023-06-26T11:08:09;32.40;99.90
17859;DHT22;35426;30.698;104.050;2023-06-26T11:10:51;32.40;99.90
17859;DHT22;35426;30.698;104.050;2023-06-26T11:13:26;32.30;99.90
17859;DHT22;35426;30.698;104.050;2023-06-26T11:16:02;32.40;99.90
17859;DHT22;35426;30.698;104.050;2023-06-26T11:18:39;32.30;99.90
17859;DHT22;35426;30.698;104.050;2023-06-26T11:21:16;32.30;99.90
17859;DHT22;35426;30.698;104.050;2023-06-26T11:23:59;32.40;99.90
17859;DHT22;35426;30.698;104.050;2023-06-26T11:26:39;32.30;99.90
17859;DHT22;35426;30.698;104.050;2023-06-26T11:29:19;32.30;99.90
17859;DHT22;35426;30.698;104.050;2023-06-26T11:32:07;32.40;99.90
17859;DHT22;35426;30.698;104.050;2023-06-26T11:34:43;32.20;99.90
17859;DHT22;35426;30.698;104.050;2023-06-26T11:37:21;32.00;99.90
17859;DHT22;35426;30.698;104.050;2023-06-26T11:39:55;32.10;99.90
17859;DHT22;35426;30.698;104.050;2023-06-26T11:42:29;32.20;99.90
17859;DHT22;35426;30.698;104.050;2023-06-26T11:45:06;32.20;99.90
17859;DHT22;35426;30.698;104.050;2023-06-26T11:47:40;32.10;99.90
17859;DHT22;35426;30.698;104.050;2023-06-26T11:50:18;32.20;99.90
17859;DHT22;35426;30.698;104.050;2023-06-26T11:52:55;32.30;99.90
17859;DHT22;35426;30.698;104.050;2023-06-26T11:55:41;32.10;99.90
17859;DHT22;35426;30.698;104.050;2023-06-26T11:58:16;31.80;99.90
17859;DHT22;35426;30.698;104.050;2023-06-26T12:00:49;31.60;99.90
17859;DHT22;35426;30.698;104.050;2023-06-26T12:03:23;31.60;99.90
17859;DHT22;35426;30.698;104.050;2023-06-26T12:05:59;31.60;99.90
17859;DHT22;35426;30.698;104.050;2023-06-26T12:08:37;31.50;99.90
17859;DHT22;35426;30.698;104.050;2023-06-26T12:11:12;31.40;99.90
17859;DHT22;35426;30.698;104.050;2023-06-26T12:13:47;31.40;99.90
17859;DHT22;35426;30.698;104.050;2023-06-26T12:16:21;31.40;99.90
17859;DHT22;35426;30.698;104.050;2023-06-26T12:18:59;31.40;99.90
17859;DHT22;35426;30.698;104.050;2023-06-26T12:21:50;31.30;99.90
17859;DHT22;35426;30.698;104.050;2023-06-26T12:24:24;31.40;99.90
17859;DHT22;35426;30.698;104.050;2023-06-26T12:26:58;31.40;99.90
17859;DHT22;35426;30.698;104.050;2023-06-26T12:29:33;31.40;99.90
17859;DHT22;35426;30.698;104.050;2023-06-26T12:32:09;31.30;99.90
17859;DHT22;35426;30.698;104.050;2023-06-26T12:34:46;31.40;99.90
17859;DHT22;35426;30.698;104.050;2023-06-26T12:37:22;31.40;99.90
17859;DHT22;35426;30.698;104.050;2023-06-26T12:39:56;31.40;99.90
17859;DHT22;35426;30.698;104.050;2023-06-26T12:42:34;31.50;99.90
17859;DHT22;35426;30.698;104.050;2023-06-26T12:45:13;31.40;99.90
17859;DHT22;35426;30.698;104.050;2023-06-26T12:48:08;31.30;99.90
17859;DHT22;35426;30.698;104.050;2023-06-26T12:50:45;31.30;99.90
17859;DHT22;35426;30.698;104.050;2023-06-26T12:53:22;31.20;99.90
17859;DHT22;35426;30.698;104.050;2023-06-26T12:55:56;31.20;99.90
17859;DHT22;35426;30.698;104.050;2023-06-26T12:58:29;31.20;99.90
17859;DHT22;35426;30.698;104.050;2023-06-26T13:01:05;31.20;99.90
17859;DHT22;35426;30.698;104.050;2023-06-26T13:03:49;31.20;99.90
17859;DHT22;35426;30.698;104.050;2023-06-26T13:06:23;31.20;99.90
17859;DHT22;35426;30.698;104.050;2023-06-26T13:09:00;31.10;99.90
17859;DHT22;35426;30.698;104.050;2023-06-26T13:11:35;31.00;99.90
17859;DHT22;35426;30.698;104.050;2023-06-26T13:14:13;31.00;99.90
17859;DHT22;35426;30.698;104.050;2023-06-26T13:16:46;30.80;99.90
17859;DHT22;35426;30.698;104.050;2023-06-26T13:19:20;30.90;99.90
17859;DHT22;35426;30.698;104.050;2023-06-26T13:21:56;30.90;99.90
17859;DHT22;35426;30.698;104.050;2023-06-26T13:24:31;30.80;99.90
17859;DHT22;35426;30.698;104.050;2023-06-26T13:27:05;30.80;99.90
17859;DHT22;35426;30.698;104.050;2023-06-26T13:29:37;30.80;99.90
17859;DHT22;35426;30.698;104.050;2023-06-26T13:32:12;30.90;99.90
17859;DHT22;35426;30.698;104.050;2023-06-26T13:34:47;30.80;99.90
17859;DHT22;35426;30.698;104.050;2023-06-26T13:37:20;30.90;99.90
17859;DHT22;35426;30.698;104.050;2023-06-26T13:39:57;30.70;99.90
17859;DHT22;35426;30.698;104.050;2023-06-26T13:42:36;30.70;99.90
17859;DHT22;35426;30.698;104.050;2023-06-26T13:45:11;30.70;99.90
17859;DHT22;35426;30.698;104.050;2023-06-26T13:47:59;30.70;99.90
17859;DHT22;35426;30.698;104.050;2023-06-26T13:50:34;30.90;99.90
17859;DHT22;35426;30.698;104.050;2023-06-26T13:53:23;30.70;99.90
17859;DHT22;35426;30.698;104.050;2023-06-26T13:56:01;30.80;99.90
17859;DHT22;35426;30.698;104.050;2023-06-26T13:58:36;30.80;99.90
17859;DHT22;35426;30.698;104.050;2023-06-26T14:01:11;30.80;99.90
17859;DHT22;35426;30.698;104.050;2023-06-26T14:03:53;30.80;99.90
17859;DHT22;35426;30.698;104.050;2023-06-26T14:06:29;30.70;99.90
17859;DHT22;35426;30.698;104.050;2023-06-26T14:09:03;30.70;99.90
17859;DHT22;35426;30.698;104.050;2023-06-26T14:11:40;30.70;99.90
17859;DHT22;35426;30.698;104.050;2023-06-26T14:14:15;30.60;99.90
17859;DHT22;35426;30.698;104.050;2023-06-26T14:16:49;30.70;99.90
17859;DHT22;35426;30.698;104.050;2023-06-26T14:19:29;30.80;99.90
17859;DHT22;35426;30.698;104.050;2023-06-26T14:22:03;30.80;99.90
17859;DHT22;35426;30.698;104.050;2023-06-26T14:24:36;30.80;99.90
17859;DHT22;35426;30.698;104.050;2023-06-26T14:27:14;30.80;99.90
17859;DHT22;35426;30.698;104.050;2023-06-26T14:29:48;30.70;99.90
17859;DHT22;35426;30.698;104.050;2023-06-26T14:32:26;30.70;99.90
17859;DHT22;35426;30.698;104.050;2023-06-26T14:35:00;30.70;99.90
17859;DHT22;35426;30.698;104.050;2023-06-26T14:37:37;30.70;99.90
17859;DHT22;35426;30.698;104.050;2023-06-26T14:40:12;30.80;99.90
17859;DHT22;35426;30.698;104.050;2023-06-26T14:42:50;30.90;99.90
17859;DHT22;35426;30.698;104.050;2023-06-26T14:45:25;30.90;99.90
17859;DHT22;35426;30.698;104.050;2023-06-26T14:47:58;31.00;99.90
17859;DHT22;35426;30.698;104.050;2023-06-26T14:50:32;31.00;99.90
17859;DHT22;35426;30.698;104.050;2023-06-26T14:53:06;30.90;99.90
17859;DHT22;35426;30.698;104.050;2023-06-26T14:55:40;30.90;99.90
17859;DHT22;35426;30.698;104.050;2023-06-26T14:58:24;30.80;99.90
17859;DHT22;35426;30.698;104.050;2023-06-26T15:00:58;30.80;99.90
17859;DHT22;35426;30.698;104.050;2023-06-26T15:03:31;30.80;99.90
17859;DHT22;35426;30.698;104.050;2023-06-26T15:06:04;30.90;99.90
17859;DHT22;35426;30.698;104.050;2023-06-26T15:08:40;30.90;99.90
17859;DHT22;35426;30.698;104.050;2023-06-26T15:11:14;30.80;99.90
17859;DHT22;35426;30.698;104.050;2023-06-26T15:13:49;30.80;99.90
17859;DHT22;35426;30.698;104.050;2023-06-26T15:16:23;30.60;99.90
17859;DHT22;35426;30.698;104.050;2023-06-26T15:18:56;30.60;99.90
17859;DHT22;35426;30.698;104.050;2023-06-26T15:21:34;30.60;99.90
17859;DHT22;35426;30.698;104.050;2023-06-26T15:24:13;30.50;99.90
17859;DHT22;35426;30.698;104.050;2023-06-26T15:26:49;30.60;99.90
17859;DHT22;35426;30.698;104.050;2023-06-26T15:29:26;30.70;99.90
17859;DHT22;35426;30.698;104.050;2023-06-26T15:32:01;30.60;99.90
17859;DHT22;35426;30.698;104.050;2023-06-26T15:34:34;30.50;99.90
17859;DHT22;35426;30.698;104.050;2023-06-26T15:37:07;30.10;99.90
17859;DHT22;35426;30.698;104.050;2023-06-26T15:39:40;29.90;99.90
17859;DHT22;35426;30.698;104.050;2023-06-26T15:42:14;29.90;99.90
17859;DHT22;35426;30.698;104.050;2023-06-26T15:44:56;29.90;99.90
17859;DHT22;35426;30.698;104.050;2023-06-26T15:47:34;29.80;99.90
17859;DHT22;35426;30.698;104.050;2023-06-26T15:50:08;29.80;99.90
17859;DHT22;35426;30.698;104.050;2023-06-26T15:52:42;29.80;99.90
17859;DHT22;35426;30.698;104.050;2023-06-26T15:55:18;29.80;99.90